Nearby METAR Reports

 

EHGG - Groningen/Eelde, Netherlands
Distance from station: WSW 29km
Updated: 22/10/2019 06:25
Mist, Overcast
Mist, Overcast
 Wind from SSW
Wind: SSW 13 km/h
Temperature: 11°C
Dew Point: 10°C
Humidity: 94%
Barometer: 1020 hPa
Summary: Mist
Clouds: Overcast
Visibility: 4 km
Cloud details: Few Clouds 152 m
Overcast 671 m
2019/10/22 04:25 EHGG 220425Z AUTO 20007KT 4000 BR FEW005 OVC022 11/10 Q1020
ETNT - Wittmundhaven(Ga, Germany
Distance from station: ENE 57km
Updated: 22/10/2019 06:20
Partly cloudy
Partly cloudy
 Wind from SW
Wind: SW 13 km/h
Temperature: 11°C
Dew Point: 9°C
Humidity: 88%
Barometer: 1019 hPa
Clouds: Partly cloudy
Visibility: 10 km
Cloud details: Partly cloudy 305 m
2019/10/22 04:20 ETNT 220420Z 22007KT 9999 SCT010 11/09 Q1019 BLU+BLU+ BECMG YLO
 
ETWM - Meppen, Germany
Distance from station: SSE 66km
Updated: 22/10/2019 06:49
Mostly cloudy
Mostly cloudy
 Wind from SW
Wind: SW 11 km/h
Temperature: 12°C
Dew Point: 10°C
Humidity: 88%
Barometer: 1021 hPa
Clouds: Mostly cloudy
Visibility: 10 km
Cloud details: Partly cloudy 335 m
Mostly cloudy 549 m
2019/10/22 04:49 ETWM 220449Z 23006KT 9999 SCT011 BKN018 12/10 Q1021 WHT
EHMA - Awg-1 Sea, Netherlands
Distance from station: WNW 70km
Updated: 22/10/2019 06:25
Mist, Overcast
Mist, Overcast
 Wind from SSW
Wind: SSW 24 km/h
Temperature: 12°C
Dew Point: 12°C
Humidity: 100%
Barometer: 1019 hPa
Summary: Mist
Clouds: Overcast
Visibility: 3 km
Cloud details: Mostly cloudy 91 m
Mostly cloudy 122 m
Overcast 213 m
2019/10/22 04:25 EHMA 220425Z AUTO 21013KT 2500 BR BKN003 BKN004 OVC007 12/12 Q1019 W///H///
 
EHLW - Leeuwarden Rnlaf, Netherlands
Distance from station: W 79km
Updated: 22/10/2019 06:55
Mist, Overcast
Mist, Overcast
 Wind from SW
Wind: SW 13 km/h
Temperature: 12°C
Dew Point: 12°C
Humidity: 100%
Barometer: 1019 hPa
Summary: Mist
Clouds: Overcast
Visibility: 3 km
Cloud details: Overcast 122 m
2019/10/22 04:55 EHLW 220455Z AUTO 22007KT 3100 BR OVC004 12/12 Q1019 YLO